Terminal Aerodrome Forecast
Issued by NWS Cleveland, OH

Home | Current Version | Previous Version | Graphics & Text | Print | Product List | Glossary On
Versions: 1 2 3 4 5 6 7 8 9 10 11 12 13 14 15 16 17 18
000
FTUS41 KCLE 050858 AAB
TAFTOL
TAF AMD
KTOL 050858Z 0509/0606 27012KT P6SM SCT015 OVC025
     FM051500 24010KT P6SM OVC025
     FM052000 19005KT P6SM SCT250=

USA.gov is the U.S. government's official web portal to all federal, state and local government web resources and services.